Historyczne dane pomiarowe

Dodano dane terminowe – wersja testowa.

Dane z okresu 1951-2019

Wersja bazy: 1.34 [2019-03-16, lista zmian], aktualizacja planowana na 2019-04-15

Dane meteo z obszaru Polski uzyskane na podstawie danych udostępnionych przez Instytut Meteorologii i Gospodarki Wodnej – Państwowy Instytut Badawczy.

 

Wybierz Datę:    

       

TemperaturaWilgotnośćZachmurzenieWiatrCiśnienieWidzialnośćZjawiska
 Data    tng td wb rh cc ccl cl cm ch dir g1 g2 mslp ppp      
1999-07-19 00:00:00 12.7--- 11.1 11.890wxwx2wx--1019.8 995.0 0.0---wx
1999-07-19 01:00:00 12.1--- 10.7 11.391wxwx1wx--1019.9 995.1----wx
1999-07-19 02:00:00 11.6--- 10.3 10.992wxwx1wx--1019.6 994.8----wx
1999-07-19 03:00:00 11.5--- 10.4 10.993wxwxwx1wx--1019.6 994.7----wx
1999-07-19 04:00:00 12.9--- 11.5 12.191wxwxwxwx1wx--1019.6 994.9----wx
1999-07-19 05:00:00 14.6--- 12.6 13.488wxwxwx1wx--1019.6 995.0----wx
1999-07-19 06:00:00 15.7--- 13.5 14.487wxwxwx2wx--1019.7 995.2 0.0---wx
1999-07-19 07:00:00 19.6--- 14.3 16.371wxwxwx2wx--1019.4 995.2----wx
1999-07-19 08:00:00 22.6--- 14.5 17.560wxwxwx2wx--1018.7 994.8----wx
1999-07-19 09:00:00 25.5--- 13.3 17.947wxwxwxwx3wx--1018.2 994.5----wx
1999-07-19 10:00:00 26.6--- 12.1 17.740wxwxwxwx3wx--1017.8 994.2----wx
1999-07-19 11:00:00 27.3--- 12.6 18.240wxwxwxwx3wx--1017.3 993.8----wx
1999-07-19 12:00:00 27.5--- 12.2 18.139wxwxwxwx3wx--1016.8 993.3 0.0---wx
1999-07-19 13:00:00 27.9--- 12.2 18.238wxwxwxwx2wx--1016.7 993.2----wx
1999-07-19 14:00:00 28.0--- 12.7 18.539wxwxwx3wx--1016.2 992.8----wx
1999-07-19 15:00:00 28.0--- 12.7 18.539wxwxwx3wx--1015.8 992.4----wx
1999-07-19 16:00:00 27.6--- 12.2 18.138wxwxwxwx3wx--1015.5 992.1----wx
1999-07-19 17:00:00 26.8--- 11.9 17.740wxwxwx4wx--1015.3 991.8----wx
1999-07-19 18:00:00 24.0--- 13.3 17.451wxwxwx3wx--1015.5 991.8 0.0---wx
1999-07-19 19:00:00 20.0--- 14.2 16.469wxwxwx3wx--1016.2 992.1----wx
1999-07-19 20:00:00 17.8--- 13.5 15.276wxwxwx2wx--1016.5 992.2----wx
1999-07-19 21:00:00 17.2--- 13.4 14.978wxwxwx1wx--1017.0 992.7----wx
1999-07-19 22:00:00 16.8--- 13.1 14.679wxwxwx0wx--1017.1 992.8----wx
1999-07-19 23:00:00 15.6--- 12.5 13.882wxwxwx0wx--1017.3 992.8----wx

 

Źródłem pochodzenia danych jest Instytut Meteorologii i Gospodarki Wodnej – Państwowy Instytut Badawczy. Dane Instytutu Meteorologii i Gospodarki Wodnej – Państwowego Instytutu Badawczego zostały przetworzone.

Dane źródłowe można odnaleźć na stronie https://dane.imgw.pl